Time;durP1;ratioP1;P1;durP2;ratioP2;P2;SDS_P1;SDS_P2;PMS_P1;PMS_P2;Temp;Humidity;BMP_temperature;BMP_pressure;BME280_temperature;BME280_humidity;BME280_pressure;Samples;Min_cycle;Max_cycle;Signal;HPM_P1;HPM_P2
2021/12/15 00:00:02;;;;;;;10.50;6.53;;;;;;;13.53;55.99;102588.47;5034576;28;20073;-79
2021/12/15 00:02:29;;;;;;;12.13;7.47;;;;;;;13.54;56.10;102589.34;5033945;28;20124;-79
2021/12/15 00:04:56;;;;;;;11.40;7.72;;;;;;;13.53;56.08;102579.41;5034872;28;20046;-78
2021/12/15 00:07:25;;;;;;;11.55;7.40;;;;;;;13.54;56.04;102571.13;5034438;28;20081;-79
2021/12/15 00:09:52;;;;;;;12.27;7.70;;;;;;;13.53;55.76;102576.66;5034141;28;20085;-79
2021/12/15 00:12:20;;;;;;;11.75;7.30;;;;;;;13.53;56.11;102576.66;5034847;28;20057;-79
2021/12/15 00:14:47;;;;;;;12.00;7.63;;;;;;;13.54;55.93;102583.91;5033118;28;20323;-80
2021/12/15 00:17:15;;;;;;;10.30;6.43;;;;;;;13.54;55.71;102578.44;5018018;28;20057;-79
2021/12/15 00:19:41;;;;;;;11.68;6.35;;;;;;;13.53;56.12;102573.94;5034017;28;20073;-79
2021/12/15 00:22:08;;;;;;;11.10;6.88;;;;;;;13.54;55.79;102578.44;5034624;28;20080;-79
2021/12/15 00:24:35;;;;;;;12.35;7.78;;;;;;;13.54;55.82;102575.72;5034123;28;20073;-79
2021/12/15 00:27:03;;;;;;;12.50;7.57;;;;;;;13.53;55.79;102572.09;5034802;28;20080;-79
2021/12/15 00:29:29;;;;;;;11.55;7.05;;;;;;;13.53;55.96;102584.84;5024291;28;20073;-79
2021/12/15 00:31:58;;;;;;;12.27;7.88;;;;;;;13.52;56.16;102581.25;5034051;28;20072;-79
2021/12/15 00:34:24;;;;;;;12.10;7.40;;;;;;;13.52;55.91;102585.81;5049584;28;20049;-79
2021/12/15 00:36:51;;;;;;;13.07;7.60;;;;;;;13.52;56.26;102583.09;5034253;28;20084;-78
2021/12/15 00:39:21;;;;;;;10.07;6.53;;;;;;;13.53;56.01;102582.13;5033943;28;20489;-79
2021/12/15 00:41:51;;;;;;;11.60;7.03;;;;;;;13.51;56.14;102586.78;5043601;28;20091;-79
2021/12/15 00:44:17;;;;;;;12.25;7.70;;;;;;;13.52;56.20;102583.97;5053603;28;20128;-79
2021/12/15 00:46:45;;;;;;;12.60;7.90;;;;;;;13.54;56.20;102589.34;5036493;28;20053;-79
2021/12/15 00:49:12;;;;;;;12.40;7.68;;;;;;;13.52;56.36;102586.69;5053923;28;20638;-79
2021/12/15 00:51:40;;;;;;;13.82;7.28;;;;;;;13.54;56.10;102582.06;5054086;28;20053;-79
2021/12/15 00:54:07;;;;;;;11.73;7.55;;;;;;;13.52;56.00;102583.09;5035437;28;20068;-79
2021/12/15 00:56:34;;;;;;;11.27;7.93;;;;;;;13.54;55.91;102578.44;5054037;28;20469;-79
2021/12/15 00:59:11;;;;;;;13.63;8.10;;;;;;;13.55;56.37;102574.75;5054022;28;20136;-79
2021/12/15 01:01:39;;;;;;;11.00;7.45;;;;;;;13.53;55.79;102577.56;5035900;28;20041;-79
2021/12/15 01:04:09;;;;;;;11.77;7.28;;;;;;;13.54;55.97;102573.88;5053497;28;20045;-79
2021/12/15 01:06:38;;;;;;;10.77;6.53;;;;;;;13.54;55.96;102582.06;5053851;28;20052;-79
2021/12/15 01:09:10;;;;;;;14.23;7.97;;;;;;;13.55;56.16;102580.22;5049110;28;20128;-79
2021/12/15 01:19:57;;;;;;;12.52;7.82;;;;;;;13.50;55.95;102588.66;5013273;28;20081;-79
2021/12/15 01:22:31;;;;;;;12.40;8.18;;;;;;;13.51;56.36;102586.78;4996016;28;20460;-79
2021/12/15 01:25:05;;;;;;;10.00;6.32;;;;;;;13.50;56.25;102591.38;5012050;28;20085;-79
2021/12/15 01:27:32;;;;;;;12.95;8.45;;;;;;;13.47;56.11;102583.34;5014128;28;20050;-80
2021/12/15 01:29:59;;;;;;;13.38;7.47;;;;;;;13.47;56.17;102590.63;5012769;28;20120;-79
2021/12/15 01:32:29;;;;;;;14.13;7.93;;;;;;;13.46;56.23;102591.59;5028659;28;20050;-79
2021/12/15 01:34:56;;;;;;;15.05;8.38;;;;;;;13.47;56.44;102590.63;5027798;28;20129;-79
2021/12/15 01:37:23;;;;;;;12.25;8.20;;;;;;;13.46;56.08;102591.59;5017422;28;20077;-79
2021/12/15 01:39:54;;;;;;;11.82;6.90;;;;;;;13.47;56.44;102587.91;5048306;28;20068;-79
2021/12/15 01:42:25;;;;;;;13.05;7.80;;;;;;;13.48;56.21;102596.03;5047573;28;20056;-79
2021/12/15 01:47:38;;;;;;;10.88;6.45;;;;;;;13.47;56.55;102586.06;5012001;28;20524;-79
2021/12/15 01:50:06;;;;;;;12.02;7.10;;;;;;;13.48;56.45;102590.56;5012045;28;20056;-79
2021/12/15 01:52:36;;;;;;;11.82;7.28;;;;;;;13.51;56.43;102587.66;5030781;28;20099;-79
2021/12/15 01:55:12;;;;;;;11.43;6.78;;;;;;;13.52;56.51;102586.69;5014697;28;20100;-80
2021/12/15 01:57:40;;;;;;;13.98;8.18;;;;;;;13.50;56.22;102585.03;5033404;28;20148;-79
2021/12/15 02:00:18;;;;;;;11.93;7.10;;;;;;;13.53;56.39;102588.47;5031759;28;20053;-79
2021/12/15 02:02:46;;;;;;;13.57;8.20;;;;;;;13.51;56.20;102592.22;5032520;28;20049;-79
2021/12/15 02:05:13;;;;;;;12.38;8.20;;;;;;;13.50;55.99;102593.22;5032268;28;20049;-79
2021/12/15 02:07:43;;;;;;;14.45;7.43;;;;;;;13.50;56.46;102591.38;5032209;28;20050;-79
2021/12/15 02:10:11;;;;;;;14.73;9.20;;;;;;;13.49;56.50;102588.72;5025668;28;20046;-79
2021/12/15 02:12:57;;;;;;;13.30;7.95;;;;;;;13.48;56.30;102596.03;5051027;28;20061;-79
2021/12/15 02:15:30;;;;;;;12.52;8.25;;;;;;;13.48;55.94;102592.41;5051950;28;20128;-79
2021/12/15 02:17:58;;;;;;;10.65;6.85;;;;;;;13.45;56.27;102589.81;5035496;28;20052;-80
2021/12/15 02:20:38;;;;;;;12.65;8.27;;;;;;;13.47;56.53;102596.97;5051283;28;20091;-79
2021/12/15 02:23:07;;;;;;;11.80;7.18;;;;;;;13.46;56.59;102597.06;5051897;28;20476;-79
2021/12/15 02:25:36;;;;;;;11.75;7.45;;;;;;;13.46;56.47;102599.78;5034396;28;20052;-79
2021/12/15 02:28:06;;;;;;;10.13;6.22;;;;;;;13.46;56.54;102586.13;5052884;28;20072;-80
2021/12/15 02:38:31;;;;;;;12.35;7.32;;;;;;;13.46;56.76;102588.88;5030133;28;20077;-79
2021/12/15 02:41:06;;;;;;;11.10;6.85;;;;;;;13.46;56.35;102588.88;5042063;28;20040;-79
2021/12/15 02:43:34;;;;;;;13.00;8.10;;;;;;;13.46;56.52;102594.31;5010844;28;20539;-80
2021/12/15 02:46:02;;;;;;;8.45;5.85;;;;;;;13.48;56.67;102585.09;5010833;28;20128;-79
2021/12/15 02:48:29;;;;;;;9.48;5.82;;;;;;;13.47;56.80;102591.53;4995074;28;20058;-80
2021/12/15 02:50:56;;;;;;;10.45;7.00;;;;;;;13.49;56.75;102596.91;5012028;28;20120;-79
2021/12/15 02:53:23;;;;;;;11.25;6.53;;;;;;;13.50;56.31;102583.19;4994535;28;20080;-79
2021/12/15 02:55:50;;;;;;;9.38;6.13;;;;;;;13.51;56.77;102590.38;5012208;28;20141;-79
2021/12/15 02:58:19;;;;;;;9.77;6.88;;;;;;;13.52;56.56;102585.81;5025145;28;20049;-79
2021/12/15 03:01:00;;;;;;;9.57;6.00;;;;;;;13.54;56.62;102592.09;5031688;28;20077;-79
2021/12/15 03:06:04;;;;;;;9.25;6.20;;;;;;;13.54;56.74;102592.09;5023780;28;20068;-79
2021/12/15 03:09:00;;;;;;;9.32;6.25;;;;;;;13.55;56.59;102591.13;5030496;28;20504;-79
2021/12/15 03:16:58;;;;;;;8.10;4.95;;;;;;;13.58;56.33;102586.41;5031298;28;20132;-79
2021/12/15 03:19:25;;;;;;;8.23;4.85;;;;;;;13.60;56.38;102584.47;5031754;28;20508;-79
2021/12/15 03:21:52;;;;;;;9.20;5.70;;;;;;;13.62;56.35;102587.13;5031492;28;20100;-79
2021/12/15 03:24:23;;;;;;;9.43;5.82;;;;;;;13.64;56.27;102587.91;5030896;28;20069;-80
2021/12/15 03:27:01;;;;;;;10.65;5.85;;;;;;;13.65;56.37;102586.97;5031068;28;20053;-80
2021/12/15 03:37:42;;;;;;;7.70;4.97;;;;;;;13.66;56.08;102600.53;5032007;28;20495;-79
2021/12/15 03:40:10;;;;;;;7.93;4.72;;;;;;;13.68;55.81;102589.50;5030170;28;20532;-80
2021/12/15 03:42:44;;;;;;;7.20;4.50;;;;;;;13.70;56.23;102591.22;5010621;28;20081;-79
2021/12/15 03:45:15;;;;;;;7.65;4.70;;;;;;;13.72;55.63;102593.88;5013186;28;20077;-79
2021/12/15 03:47:46;;;;;;;7.22;4.22;;;;;;;13.71;56.05;102587.53;5031718;28;20081;-79
2021/12/15 03:50:16;;;;;;;8.55;4.28;;;;;;;13.70;56.17;102588.47;5030503;28;20124;-80
2021/12/15 03:52:43;;;;;;;8.27;4.57;;;;;;;13.70;55.69;102585.75;5021928;28;20088;-79
2021/12/15 03:55:11;;;;;;;6.78;4.05;;;;;;;13.73;55.87;102590.19;5030657;28;20172;-79
2021/12/15 03:57:38;;;;;;;7.05;4.13;;;;;;;13.70;55.98;102591.22;5031910;28;20088;-79
2021/12/15 04:00:07;;;;;;;6.45;3.85;;;;;;;13.72;55.92;102593.88;5030539;28;20124;-80
2021/12/15 04:02:37;;;;;;;6.32;3.97;;;;;;;13.68;55.99;102593.13;5031139;28;20060;-79
2021/12/15 04:05:06;;;;;;;6.68;3.67;;;;;;;13.70;55.90;102602.13;5008295;28;20069;-80
2021/12/15 04:07:35;;;;;;;6.57;3.47;;;;;;;13.69;55.76;102605.81;5023347;28;20146;-80
2021/12/15 04:10:07;;;;;;;6.93;4.03;;;;;;;13.69;55.84;102605.81;5034055;28;20568;-80
2021/12/15 04:12:34;;;;;;;6.25;3.40;;;;;;;13.66;55.88;102606.00;5034658;28;20088;-80
2021/12/15 04:15:25;;;;;;;5.47;3.03;;;;;;;13.68;55.80;102604.03;5030561;28;20045;-80
2021/12/15 04:17:57;;;;;;;5.50;3.17;;;;;;;13.68;55.89;102611.34;5034679;28;20081;-80
2021/12/15 04:20:29;;;;;;;4.93;3.00;;;;;;;13.67;56.07;102615.06;5033805;28;20041;-80
2021/12/15 04:22:56;;;;;;;6.93;3.45;;;;;;;13.64;55.84;102602.47;5034453;28;20077;-80
2021/12/15 04:25:27;;;;;;;4.88;2.92;;;;;;;13.69;55.87;102607.66;5034115;28;20096;-80
2021/12/15 04:28:16;;;;;;;6.00;3.00;;;;;;;13.66;56.17;102611.47;5017027;28;20093;-80
2021/12/15 04:30:48;;;;;;;5.78;2.90;;;;;;;13.66;55.80;102611.47;5033005;28;20084;-80
2021/12/15 04:33:39;;;;;;;6.45;3.15;;;;;;;13.65;56.15;102612.41;5016072;28;20056;-80
2021/12/15 04:36:08;;;;;;;5.45;3.17;;;;;;;13.66;55.91;102616.91;5033425;28;20049;-80
2021/12/15 04:38:36;;;;;;;5.32;3.35;;;;;;;13.67;55.73;102615.06;5053434;28;20059;-80
2021/12/15 04:41:07;;;;;;;5.32;2.72;;;;;;;13.67;56.13;102613.19;5033532;28;20105;-80
2021/12/15 04:43:40;;;;;;;4.88;2.90;;;;;;;13.65;56.31;102615.16;5033429;28;20048;-80
2021/12/15 04:46:10;;;;;;;5.88;3.13;;;;;;;13.66;55.94;102619.66;5049277;28;20127;-80
2021/12/15 04:48:39;;;;;;;5.43;3.13;;;;;;;13.66;55.89;102619.66;5034131;28;20048;-80
2021/12/15 04:51:06;;;;;;;5.72;3.60;;;;;;;13.66;56.17;102625.09;5034111;28;20084;-80
2021/12/15 04:53:36;;;;;;;6.60;3.88;;;;;;;13.67;55.92;102617.81;5015836;28;20128;-80
2021/12/15 04:56:06;;;;;;;5.13;3.05;;;;;;;13.67;55.99;102626.00;5016018;28;20095;-80
2021/12/15 04:58:32;;;;;;;5.75;3.30;;;;;;;13.66;56.10;102619.66;5049245;28;20073;-80
2021/12/15 05:01:02;;;;;;;5.63;3.20;;;;;;;13.68;55.82;102625.00;5033925;28;20081;-80
2021/12/15 05:03:29;;;;;;;5.93;3.45;;;;;;;13.66;55.96;102621.50;5033426;28;20049;-80
2021/12/15 05:05:56;;;;;;;5.07;3.05;;;;;;;13.65;56.04;102620.59;5033545;28;20041;-80
2021/12/15 05:08:23;;;;;;;5.93;3.25;;;;;;;13.67;56.13;102623.25;5036653;28;20049;-80
2021/12/15 05:10:56;;;;;;;5.55;3.10;;;;;;;13.67;56.07;102621.38;5034218;28;20073;-80
2021/12/15 05:13:23;;;;;;;6.20;3.70;;;;;;;13.67;56.47;102620.53;5033415;28;20050;-80
2021/12/15 05:15:50;;;;;;;5.43;3.25;;;;;;;13.67;56.04;102626.84;5033550;28;20045;-80
2021/12/15 05:18:17;;;;;;;5.32;2.88;;;;;;;13.67;55.88;102626.00;5033536;28;20056;-81
2021/12/15 05:20:48;;;;;;;5.65;3.10;;;;;;;13.68;56.17;102622.28;5026008;28;20050;-80
2021/12/15 05:23:16;;;;;;;6.10;3.22;;;;;;;13.69;56.40;102626.78;5031515;28;20045;-80
2021/12/15 05:25:45;;;;;;;5.25;3.05;;;;;;;13.70;56.14;102631.28;5040821;28;20120;-81
2021/12/15 05:28:12;;;;;;;5.30;3.03;;;;;;;13.70;56.07;102629.44;5033284;28;20081;-80
2021/12/15 05:30:42;;;;;;;5.03;2.75;;;;;;;13.71;55.91;102631.19;5032796;28;20437;-80
2021/12/15 05:33:17;;;;;;;5.15;2.90;;;;;;;13.71;55.76;102641.22;5033212;28;20054;-80
2021/12/15 05:35:45;;;;;;;4.82;3.08;;;;;;;13.69;56.10;102637.69;5031853;28;20049;-80
2021/12/15 05:38:12;;;;;;;4.90;2.80;;;;;;;13.71;55.98;102635.78;5017460;28;20057;-80
2021/12/15 05:40:39;;;;;;;5.47;2.70;;;;;;;13.69;55.99;102640.41;5038415;28;20049;-80
2021/12/15 05:43:06;;;;;;;5.18;2.90;;;;;;;13.70;56.16;102639.47;5036160;28;20071;-80
2021/12/15 05:45:36;;;;;;;5.03;2.63;;;;;;;13.70;55.79;102644.91;5032046;28;20102;-81
2021/12/15 05:48:04;;;;;;;4.97;2.95;;;;;;;13.69;56.41;102637.69;5033090;28;20092;-80
2021/12/15 05:50:32;;;;;;;4.07;2.30;;;;;;;13.69;56.31;102629.50;5030746;28;20080;-80
2021/12/15 05:53:01;;;;;;;5.03;2.80;;;;;;;13.68;56.23;102641.38;5015791;28;20152;-80
2021/12/15 05:58:31;;;;;;;4.47;2.53;;;;;;;13.69;56.64;102643.16;5032386;28;20124;-81
2021/12/15 06:01:03;;;;;;;4.97;2.65;;;;;;;13.68;56.16;102633.19;4991208;28;20047;-81
2021/12/15 06:04:14;;;;;;;3.95;2.25;;;;;;;13.64;56.25;102640.66;5006666;28;20050;-81
2021/12/15 06:07:16;;;;;;;6.05;2.78;;;;;;;13.70;56.29;102644.91;4986014;28;20050;-81
2021/12/15 06:10:10;;;;;;;5.35;2.83;;;;;;;13.69;56.08;102654.06;4979276;28;20509;-81
2021/12/15 06:12:50;;;;;;;5.35;2.72;;;;;;;13.68;56.56;102660.47;5026419;28;20091;-81
2021/12/15 06:15:31;;;;;;;5.28;3.05;;;;;;;13.71;56.05;102665.78;5003192;28;20527;-81
2021/12/15 06:19:00;;;;;;;5.53;3.33;;;;;;;13.66;56.47;102665.16;5002861;28;20058;-81
2021/12/15 06:25:55;;;;;;;4.47;2.53;;;;;;;13.67;56.66;102656.00;4897808;29;20102;-82
2021/12/15 06:28:26;;;;;;;5.45;2.65;;;;;;;13.67;56.30;102650.56;4920084;29;20060;-83
2021/12/15 06:31:24;;;;;;;5.07;2.63;;;;;;;13.69;56.51;102659.53;4915745;29;20581;-82
2021/12/15 06:33:50;;;;;;;4.47;2.60;;;;;;;13.67;56.28;102661.47;4950759;29;20066;-82
2021/12/15 06:36:21;;;;;;;5.65;3.53;;;;;;;13.70;55.92;102662.19;4936621;29;20055;-82
2021/12/15 06:38:53;;;;;;;5.28;3.30;;;;;;;13.73;56.27;102663.88;4933995;29;20138;-82
2021/12/15 06:41:21;;;;;;;4.28;2.83;;;;;;;13.70;56.21;102669.47;4941638;29;20052;-82
2021/12/15 06:44:15;;;;;;;6.25;3.40;;;;;;;13.71;55.91;102668.53;4931263;29;20079;-82
2021/12/15 06:58:39;;;;;;;6.75;3.72;;;;;;;13.75;56.20;102680.19;5035689;28;20049;-82
2021/12/15 07:01:07;;;;;;;5.93;3.72;;;;;;;13.73;56.32;102687.56;5031710;28;20539;-82
2021/12/15 07:03:37;;;;;;;6.97;3.80;;;;;;;13.73;56.34;102685.72;5022665;28;20049;-82
2021/12/15 07:06:11;;;;;;;6.25;3.95;;;;;;;13.76;56.29;102681.94;5033678;28;20042;-83
2021/12/15 07:08:39;;;;;;;7.13;4.13;;;;;;;13.74;56.11;102683.88;5014564;28;20041;-82
2021/12/15 07:11:24;;;;;;;5.90;3.65;;;;;;;13.75;56.34;102678.34;5035745;28;20033;-82
2021/12/15 07:13:51;;;;;;;6.95;3.88;;;;;;;13.74;56.33;102689.34;5029748;28;20080;-82
2021/12/15 07:16:19;;;;;;;6.40;3.83;;;;;;;13.75;56.19;102685.66;5030760;28;20050;-83
2021/12/15 07:19:04;;;;;;;7.57;5.13;;;;;;;13.78;56.53;102693.66;5029628;28;20049;-83
2021/12/15 07:21:35;;;;;;;8.02;4.80;;;;;;;13.75;56.53;102694.72;5023225;28;20041;-84
2021/12/15 07:24:03;;;;;;;6.47;4.47;;;;;;;13.75;56.07;102694.72;5014123;28;20056;-83
2021/12/15 07:26:30;;;;;;;7.55;4.20;;;;;;;13.76;56.47;102706.50;5033461;28;20061;-83
2021/12/15 07:28:56;;;;;;;6.13;4.00;;;;;;;13.77;56.48;102705.53;5037341;28;20049;-83
2021/12/15 07:31:23;;;;;;;8.30;4.75;;;;;;;13.77;56.44;102714.63;5030383;28;20068;-83
2021/12/15 07:33:50;;;;;;;7.90;4.30;;;;;;;13.78;56.07;102707.31;5032364;28;20049;-83
2021/12/15 07:36:17;;;;;;;7.63;4.40;;;;;;;13.78;56.26;102705.47;5047921;28;20049;-83
2021/12/15 07:38:44;;;;;;;6.95;4.43;;;;;;;13.79;56.11;102709.97;5031616;28;20095;-82
2021/12/15 07:41:36;;;;;;;7.40;4.60;;;;;;;13.82;56.62;102703.47;5012436;28;20057;-82
2021/12/15 07:44:03;;;;;;;8.27;4.40;;;;;;;13.76;56.04;102711.97;5030684;28;20095;-83
2021/12/15 07:46:51;;;;;;;7.35;4.15;;;;;;;13.77;56.30;102713.72;5031467;28;20049;-83
2021/12/15 07:49:24;;;;;;;6.75;4.80;;;;;;;13.80;56.12;102728.13;5018922;28;20128;-83
2021/12/15 07:52:00;;;;;;;7.07;4.43;;;;;;;13.78;56.45;102718.22;5040045;28;20052;-83
2021/12/15 07:54:30;;;;;;;5.70;3.60;;;;;;;13.81;56.41;102713.50;5034586;28;20849;-83
2021/12/15 07:56:56;;;;;;;6.13;3.90;;;;;;;13.81;56.10;102718.09;5037324;28;20081;-83
2021/12/15 07:59:26;;;;;;;6.18;4.15;;;;;;;13.81;56.20;102718.09;5029366;28;20077;-83
2021/12/15 08:01:53;;;;;;;7.18;4.30;;;;;;;13.82;56.61;102722.59;5043811;28;20042;-83
2021/12/15 08:04:41;;;;;;;6.47;4.18;;;;;;;13.85;56.17;102722.41;5040492;28;20567;-83
2021/12/15 08:07:08;;;;;;;6.28;3.97;;;;;;;13.82;56.25;102726.22;5033161;28;20108;-83
2021/12/15 08:09:35;;;;;;;7.05;4.28;;;;;;;13.83;56.60;102725.25;5031899;28;20069;-83
2021/12/15 08:12:03;;;;;;;6.28;4.05;;;;;;;13.84;56.47;102723.38;5023750;28;20095;-83
2021/12/15 08:14:30;;;;;;;6.38;4.18;;;;;;;13.84;56.43;102726.97;5029858;28;20042;-83
2021/12/15 08:16:57;;;;;;;6.55;3.92;;;;;;;13.84;56.43;102724.25;5035671;28;20045;-84
2021/12/15 08:19:24;;;;;;;7.03;4.00;;;;;;;13.85;56.25;102730.59;5034168;28;20061;-83
2021/12/15 08:21:52;;;;;;;6.22;4.10;;;;;;;13.86;56.65;102725.06;5036753;28;20081;-83
2021/12/15 08:24:25;;;;;;;6.15;3.47;;;;;;;13.88;56.07;102725.88;4990178;28;20378;-83
2021/12/15 08:26:52;;;;;;;5.93;3.80;;;;;;;13.83;56.05;102722.53;5016055;28;20461;-83
2021/12/15 08:29:19;;;;;;;8.00;4.85;;;;;;;13.84;56.50;102724.25;5035931;28;20057;-83
2021/12/15 08:31:45;;;;;;;5.78;3.65;;;;;;;13.85;56.56;102726.03;5050790;28;20053;-83
2021/12/15 08:34:12;;;;;;;6.43;3.90;;;;;;;13.87;56.33;102732.31;4998101;28;20041;-83
2021/12/15 08:36:40;;;;;;;5.38;3.38;;;;;;;13.87;56.26;102739.59;5030752;28;20652;-82
2021/12/15 08:39:08;;;;;;;6.70;3.72;;;;;;;13.88;56.13;102738.66;5021929;28;20128;-84
2021/12/15 08:41:35;;;;;;;6.55;3.95;;;;;;;13.89;56.35;102745.88;5017436;28;20112;-84
2021/12/15 08:44:06;;;;;;;5.97;3.80;;;;;;;13.89;56.32;102740.44;5004360;28;20424;-84
2021/12/15 08:46:39;;;;;;;6.18;3.97;;;;;;;13.89;56.11;102737.69;5003619;28;20128;-84
2021/12/15 08:49:12;;;;;;;6.75;3.85;;;;;;;13.90;56.18;102736.75;4997329;28;20058;-85
2021/12/15 08:51:39;;;;;;;6.53;3.97;;;;;;;13.88;56.30;102744.13;5027511;28;20058;-84
2021/12/15 08:54:11;;;;;;;5.60;3.40;;;;;;;13.90;56.60;102745.81;5008345;28;20058;-85
2021/12/15 08:56:46;;;;;;;5.90;3.78;;;;;;;13.91;56.26;102735.78;5015447;28;20055;-84
2021/12/15 08:59:14;;;;;;;5.55;3.42;;;;;;;13.90;56.21;102737.63;5027706;28;20547;-85
2021/12/15 09:01:45;;;;;;;6.32;4.00;;;;;;;13.91;56.03;102744.84;5016790;28;20053;-86
2021/12/15 09:04:15;;;;;;;5.85;3.80;;;;;;;13.91;56.23;102746.69;5014380;28;20049;-85
2021/12/15 09:06:46;;;;;;;5.82;3.78;;;;;;;13.92;55.98;102742.97;5032936;28;20135;-84
2021/12/15 09:09:20;;;;;;;6.75;4.15;;;;;;;13.93;56.08;102748.38;5011793;28;20049;-85
2021/12/15 09:11:51;;;;;;;7.18;4.57;;;;;;;13.92;56.34;102740.25;5012175;28;20046;-86
2021/12/15 09:14:20;;;;;;;6.28;4.05;;;;;;;13.92;56.00;102748.44;5028582;28;20037;-85
2021/12/15 09:16:54;;;;;;;7.20;4.45;;;;;;;13.94;56.16;102744.69;5026669;28;20050;-85
2021/12/15 09:19:22;;;;;;;5.90;3.75;;;;;;;13.95;55.90;102745.56;4996977;28;20076;-85
2021/12/15 09:21:52;;;;;;;7.05;4.45;;;;;;;13.94;56.00;102741.94;5028176;28;20080;-84
2021/12/15 09:24:20;;;;;;;6.10;3.53;;;;;;;13.96;56.40;102742.75;5004085;28;20404;-85
2021/12/15 09:26:49;;;;;;;5.40;3.13;;;;;;;13.94;55.97;102744.69;5006450;28;20045;-87
2021/12/15 09:29:24;;;;;;;5.20;3.50;;;;;;;13.96;56.14;102750.97;5000186;28;20479;-82
2021/12/15 09:31:55;;;;;;;5.50;3.55;;;;;;;13.97;55.96;102747.25;5024422;28;20448;-84
2021/12/15 09:34:29;;;;;;;5.63;3.47;;;;;;;13.94;55.97;102752.88;5008213;28;20056;-90
2021/12/15 09:36:57;;;;;;;6.00;3.60;;;;;;;13.95;56.11;102749.19;5027853;28;20046;-89
2021/12/15 09:39:31;;;;;;;5.35;3.38;;;;;;;13.97;56.29;102760.91;5021158;28;20058;-89
2021/12/15 09:42:17;;;;;;;4.47;3.05;;;;;;;13.96;56.03;102758.25;4998739;28;20085;-90
2021/12/15 09:44:52;;;;;;;5.72;3.63;;;;;;;13.96;56.10;102761.88;5009756;28;20062;-83
2021/12/15 09:47:57;;;;;;;5.22;3.47;;;;;;;13.97;56.28;102770.97;5029451;28;20053;-85
2021/12/15 10:10:43;;;;;;;5.13;3.28;;;;;;;13.99;56.66;102775.38;4970636;28;20243;-83
2021/12/15 10:20:00;;;;;;;5.63;3.53;;;;;;;14.01;56.11;102767.97;4949924;28;20196;-84
2021/12/15 10:22:45;;;;;;;6.50;3.60;;;;;;;14.02;56.12;102764.28;4944315;28;20054;-84
2021/12/15 10:28:37;;;;;;;5.63;3.33;;;;;;;14.03;56.37;102763.34;4966575;28;20149;-86
2021/12/15 10:31:18;;;;;;;5.50;3.60;;;;;;;14.07;56.29;102764.06;4955473;28;20129;-84
2021/12/15 10:34:04;;;;;;;6.15;3.95;;;;;;;14.06;56.33;102757.72;4948306;28;20047;-84
2021/12/15 10:36:51;;;;;;;6.82;4.38;;;;;;;14.08;56.08;102763.13;4965061;28;20047;-88
2021/12/15 10:39:42;;;;;;;6.63;3.70;;;;;;;14.08;56.39;102765.84;4925704;28;20047;-86
2021/12/15 10:42:35;;;;;;;6.53;3.75;;;;;;;14.10;56.44;102769.34;4947720;28;20129;-85
2021/12/15 10:45:16;;;;;;;6.65;4.28;;;;;;;14.09;56.26;102759.38;5007620;28;20504;-83
2021/12/15 10:47:51;;;;;;;6.07;3.73;;;;;;;14.10;56.17;102762.06;5022433;28;20092;-83
2021/12/15 10:50:26;;;;;;;6.38;3.67;;;;;;;14.13;56.04;102765.59;5042361;28;20057;-84
2021/12/15 10:53:03;;;;;;;5.30;3.60;;;;;;;14.13;56.44;102771.06;5000326;28;20602;-84
2021/12/15 10:55:38;;;;;;;6.45;4.20;;;;;;;14.13;56.37;102766.47;5027423;28;20095;-85
2021/12/15 10:58:39;;;;;;;5.50;3.47;;;;;;;14.13;56.30;102762.88;5010316;28;20041;-86
2021/12/15 11:01:53;;;;;;;5.95;4.00;;;;;;;14.13;56.15;102762.88;5030742;28;20050;-88
2021/12/15 11:04:22;;;;;;;5.53;3.70;;;;;;;14.15;56.51;102767.28;4997222;28;20087;-87
2021/12/15 11:07:29;;;;;;;6.07;3.72;;;;;;;14.17;56.25;102773.53;5008808;28;20065;-85
2021/12/15 11:10:31;;;;;;;5.68;3.42;;;;;;;14.15;56.54;102767.28;5023137;28;20057;-85
2021/12/15 11:13:18;;;;;;;;;;;;;;;13.91;56.99;102760.34;5028573;28;20103;-85
2021/12/15 11:15:51;;;;;;;5.97;3.40;;;;;;;14.12;56.43;102761.09;5008527;28;20012;-84
2021/12/15 11:18:36;;;;;;;5.60;3.45;;;;;;;14.17;56.12;102765.34;5027477;28;20064;-85
2021/12/15 11:21:10;;;;;;;6.10;4.03;;;;;;;14.16;56.35;102774.53;5031425;28;20144;-86
2021/12/15 11:23:38;;;;;;;6.40;3.85;;;;;;;14.16;56.30;102768.19;5023984;28;20050;-86
2021/12/15 11:26:11;;;;;;;7.05;4.22;;;;;;;14.18;56.20;102763.50;5019680;28;20057;-87
2021/12/15 11:28:49;;;;;;;6.97;4.03;;;;;;;14.20;56.29;102764.31;5029154;28;20136;-86
2021/12/15 11:31:16;;;;;;;5.90;4.13;;;;;;;14.18;56.23;102766.22;5004519;28;20054;-85
2021/12/15 11:33:51;;;;;;;6.32;4.03;;;;;;;14.21;56.43;102760.63;4969078;28;20050;-85
2021/12/15 11:36:35;;;;;;;6.75;4.80;;;;;;;14.20;55.99;102767.03;5019477;28;20051;-85
2021/12/15 11:39:10;;;;;;;6.22;3.65;;;;;;;14.20;56.29;102764.31;5010404;28;20539;-84
2021/12/15 11:41:49;;;;;;;6.65;4.38;;;;;;;14.20;56.16;102762.47;4990024;28;1217709;-85
2021/12/15 11:44:22;;;;;;;6.82;4.03;;;;;;;14.19;56.11;102755.22;5000115;28;20068;-86
2021/12/15 11:47:08;;;;;;;6.78;4.20;;;;;;;14.20;56.43;102745.19;5010456;28;20488;-85
2021/12/15 11:49:45;;;;;;;6.97;4.43;;;;;;;14.18;56.18;102749.84;5032495;28;20060;-85
2021/12/15 11:52:14;;;;;;;5.63;4.30;;;;;;;14.21;55.74;102745.13;5007992;28;20049;-88
2021/12/15 11:54:50;;;;;;;5.95;4.13;;;;;;;14.23;56.06;102743.19;5023707;28;20045;-86
2021/12/15 11:57:25;;;;;;;6.53;4.68;;;;;;;14.20;55.94;102754.28;5032849;28;20057;-88
2021/12/15 12:00:03;;;;;;;7.55;4.70;;;;;;;14.21;56.24;102758.78;5000277;28;20069;-86
2021/12/15 12:02:58;;;;;;;6.90;4.65;;;;;;;14.19;56.18;102746.16;5021451;28;20459;-85
2021/12/15 12:05:34;;;;;;;5.72;4.07;;;;;;;14.20;55.94;102750.66;5011218;28;20049;-85
2021/12/15 12:08:12;;;;;;;6.30;4.10;;;;;;;14.20;56.05;102746.06;5030937;28;20053;-85
2021/12/15 12:10:56;;;;;;;6.85;4.60;;;;;;;14.22;56.19;102748.72;5045809;28;20045;-88
2021/12/15 12:13:51;;;;;;;7.32;4.60;;;;;;;14.18;56.04;102741.66;5002017;28;20074;-84
2021/12/15 12:16:45;;;;;;;6.85;4.63;;;;;;;14.21;56.37;102744.22;5025045;28;20064;-84
2021/12/15 12:19:27;;;;;;;7.35;4.45;;;;;;;14.21;56.18;102736.03;5017667;28;20046;-84
2021/12/15 12:21:54;;;;;;;7.43;4.32;;;;;;;14.19;56.39;102743.41;5006187;28;20461;-86
2021/12/15 12:24:34;;;;;;;7.10;4.60;;;;;;;14.22;56.28;102738.69;4998930;28;20562;-87
2021/12/15 12:27:03;;;;;;;7.22;4.68;;;;;;;14.23;56.24;102742.31;5026300;28;20135;-84
2021/12/15 12:29:34;;;;;;;8.05;5.13;;;;;;;14.26;56.34;102739.41;5027747;28;20045;-85
2021/12/15 12:32:04;;;;;;;7.38;4.60;;;;;;;14.24;56.63;102733.16;5035325;28;20056;-87
2021/12/15 12:34:35;;;;;;;7.20;5.05;;;;;;;14.28;56.24;102740.22;5015986;28;20042;-88
2021/12/15 12:37:02;;;;;;;7.20;4.97;;;;;;;14.28;56.42;102743.81;5030598;28;20520;-86
2021/12/15 12:39:35;;;;;;;9.30;6.07;;;;;;;14.30;56.25;102735.56;5003583;28;20455;-85
2021/12/15 12:42:07;;;;;;;10.00;5.40;;;;;;;14.33;56.23;102743.59;5031355;28;20053;-84
2021/12/15 12:44:43;;;;;;;8.45;5.50;;;;;;;14.31;56.28;102735.47;5028731;28;20084;-84
2021/12/15 12:47:35;;;;;;;7.57;5.10;;;;;;;14.33;56.05;102732.66;5018645;28;20071;-85
2021/12/15 12:51:04;;;;;;;8.10;5.10;;;;;;;14.29;56.51;102731.94;5033579;28;20072;-83
2021/12/15 12:59:49;;;;;;;9.07;5.85;;;;;;;14.33;56.59;102729.94;5024879;28;20141;-84
2021/12/15 13:02:47;;;;;;;8.95;6.22;;;;;;;14.32;56.31;102729.06;5015523;28;20100;-83
2021/12/15 13:05:38;;;;;;;9.43;6.07;;;;;;;14.31;56.51;102730.00;5027963;28;20046;-83
2021/12/15 13:08:16;;;;;;;9.27;5.60;;;;;;;14.32;56.23;102731.78;4999496;28;20057;-85
2021/12/15 13:11:33;;;;;;;9.18;6.07;;;;;;;14.32;56.33;102726.31;5025557;28;20069;-84
2021/12/15 13:14:09;;;;;;;9.35;5.78;;;;;;;14.30;56.47;102724.63;5028976;28;20065;-84
2021/12/15 13:16:38;;;;;;;9.65;6.30;;;;;;;14.33;56.55;102729.94;5035704;28;20037;-84
2021/12/15 13:19:25;;;;;;;9.10;6.00;;;;;;;14.36;56.60;102725.19;5026248;28;20049;-85
2021/12/15 13:22:32;;;;;;;10.35;6.60;;;;;;;14.33;56.41;102713.53;5043063;28;20045;-85
2021/12/15 13:31:06;;;;;;;10.52;6.47;;;;;;;14.30;56.67;102714.59;5027614;28;20057;-84